Time;durP1;ratioP1;P1;durP2;ratioP2;P2;SDS_P1;SDS_P2;PMS_P1;PMS_P2;Temp;Humidity;BMP_temperature;BMP_pressure;BME280_temperature;BME280_humidity;BME280_pressure;Samples;Min_cycle;Max_cycle;Signal;HPM_P1;HPM_P2
2023/05/04 00:00:39;;;;;;;10.02;3.22;;;;;;;11.71;48.64;102515.50;5018878;28;20034;-37
2023/05/04 00:03:05;;;;;;;10.70;2.97;;;;;;;11.67;48.65;102513.03;5021104;28;20038;-37
2023/05/04 00:05:31;;;;;;;9.20;3.03;;;;;;;11.55;49.20;102509.91;5021719;28;20060;-37
2023/05/04 00:07:56;;;;;;;10.30;2.95;;;;;;;11.60;49.16;102512.38;5019507;28;20099;-37
2023/05/04 00:10:22;;;;;;;6.88;2.72;;;;;;;11.62;48.92;102517.59;5021432;28;20037;-37
2023/05/04 00:12:47;;;;;;;11.82;3.75;;;;;;;11.61;48.92;102513.22;5017245;28;20048;-37
2023/05/04 00:15:13;;;;;;;7.07;3.08;;;;;;;11.51;49.22;102513.53;5014435;28;20099;-38
2023/05/04 00:17:40;;;;;;;13.07;3.80;;;;;;;11.45;49.22;102511.09;5014083;28;20513;-38
2023/05/04 00:20:10;;;;;;;8.50;3.15;;;;;;;11.48;49.19;102502.25;5014235;28;20034;-37
2023/05/04 00:22:35;;;;;;;12.65;4.63;;;;;;;11.43;49.34;102507.66;5000250;28;20672;-37
2023/05/04 00:25:03;;;;;;;7.85;2.97;;;;;;;11.35;49.45;102501.78;5021460;28;20033;-37
2023/05/04 00:27:29;;;;;;;9.00;3.58;;;;;;;11.27;49.69;102494.13;4989263;28;20136;-37
2023/05/04 00:29:55;;;;;;;11.05;3.13;;;;;;;11.23;49.65;102493.38;5018373;28;20037;-38
2023/05/04 00:32:21;;;;;;;12.68;3.10;;;;;;;11.27;49.53;102502.03;5002383;28;20029;-37
2023/05/04 00:34:50;;;;;;;9.93;3.47;;;;;;;11.26;49.47;102498.56;5022498;28;20084;-38
2023/05/04 00:37:15;;;;;;;10.93;3.47;;;;;;;11.19;49.69;102497.00;5018371;28;20035;-36
2023/05/04 00:39:41;;;;;;;7.45;3.38;;;;;;;11.12;49.90;102496.34;5015959;28;20029;-38
2023/05/04 00:42:06;;;;;;;11.85;3.72;;;;;;;11.17;49.74;102492.72;5016106;28;20109;-37
2023/05/04 00:44:33;;;;;;;9.07;3.60;;;;;;;11.23;49.57;102493.38;4992787;28;20053;-37
2023/05/04 00:46:59;;;;;;;7.68;3.08;;;;;;;11.34;49.49;102505.31;5002690;28;20029;-37
2023/05/04 00:49:25;;;;;;;9.77;3.85;;;;;;;11.39;49.36;102495.50;4995602;28;20052;-38
2023/05/04 00:51:53;;;;;;;9.75;3.22;;;;;;;11.42;49.20;102495.38;4998820;28;20033;-37
2023/05/04 00:54:18;;;;;;;5.82;3.30;;;;;;;11.40;49.22;102489.31;5013251;28;20051;-37
2023/05/04 00:56:44;;;;;;;9.30;3.13;;;;;;;11.34;49.34;102494.78;5017400;28;20446;-38
2023/05/04 00:59:12;;;;;;;9.40;3.10;;;;;;;11.26;49.32;102488.00;5016961;28;20506;-36
2023/05/04 01:01:37;;;;;;;8.82;3.70;;;;;;;11.28;49.20;102486.16;5020427;28;20048;-37
2023/05/04 01:04:03;;;;;;;10.18;3.55;;;;;;;11.27;49.45;102487.06;4994530;28;20033;-37
2023/05/04 01:07:02;;;;;;;10.07;4.03;;;;;;;11.27;49.84;102487.06;4999317;28;20037;-37
2023/05/04 01:09:34;;;;;;;10.70;4.53;;;;;;;11.24;49.38;102478.41;5024095;28;20037;-38
2023/05/04 01:12:11;;;;;;;;;;;;;;;11.23;50.23;102482.84;5020760;28;20546;-38
2023/05/04 01:14:38;;;;;;;9.43;3.95;;;;;;;11.19;49.44;102483.84;5019060;28;19917;-37
2023/05/04 01:17:06;;;;;;;8.88;3.28;;;;;;;11.19;49.43;102491.75;4986345;28;20050;-37
2023/05/04 01:19:32;;;;;;;10.73;4.07;;;;;;;11.13;49.40;102481.38;5000543;28;20041;-37
2023/05/04 01:21:58;;;;;;;17.58;4.50;;;;;;;11.05;49.75;102476.38;5015753;28;20041;-37
2023/05/04 01:24:25;;;;;;;13.40;3.97;;;;;;;11.09;49.56;102479.78;5013722;28;20032;-37
2023/05/04 01:27:23;;;;;;;7.53;3.85;;;;;;;11.10;50.13;102478.88;5016004;28;20062;-36
2023/05/04 01:30:02;;;;;;;16.30;3.50;;;;;;;11.00;49.99;102490.59;5019948;28;20487;-37
2023/05/04 01:32:30;;;;;;;13.30;4.28;;;;;;;10.94;49.98;102483.75;5036955;22;20209;-36
2023/05/04 01:34:56;;;;;;;12.63;3.53;;;;;;;10.85;50.22;102482.25;5007564;28;20106;-37
2023/05/04 01:37:22;;;;;;;12.77;3.72;;;;;;;10.79;50.32;102487.75;5010624;28;20044;-37
2023/05/04 01:39:50;;;;;;;11.05;4.57;;;;;;;10.74;50.45;102481.75;5048897;28;20028;-38
2023/05/04 01:42:18;;;;;;;8.35;3.40;;;;;;;10.70;50.48;102483.63;5050304;28;20033;-37
2023/05/04 01:44:44;;;;;;;10.95;3.47;;;;;;;10.76;50.44;102478.16;5031219;28;20104;-36
2023/05/04 01:47:10;;;;;;;10.15;4.35;;;;;;;10.76;50.36;102482.56;5054440;28;20032;-37
2023/05/04 01:49:37;;;;;;;12.75;3.92;;;;;;;10.80;50.10;102478.94;5054002;28;20528;-37
2023/05/04 01:52:03;;;;;;;13.55;4.43;;;;;;;10.82;50.09;102477.09;5028894;28;20032;-37
2023/05/04 01:54:29;;;;;;;11.07;4.28;;;;;;;10.80;50.29;102473.66;5037926;28;20028;-37
2023/05/04 01:56:54;;;;;;;13.10;3.70;;;;;;;10.74;50.19;102468.56;5054699;28;20028;-37
2023/05/04 01:59:20;;;;;;;13.63;4.22;;;;;;;10.63;50.58;102471.53;5045330;28;20678;-37
2023/05/04 02:01:45;;;;;;;13.52;4.53;;;;;;;10.54;50.55;102472.66;5050815;28;20119;-37
2023/05/04 02:04:11;;;;;;;15.00;4.38;;;;;;;10.57;50.71;102475.22;5051907;28;20029;-36
2023/05/04 02:06:36;;;;;;;12.98;3.58;;;;;;;10.57;50.98;102472.59;5056263;28;20033;-37
2023/05/04 02:09:02;;;;;;;12.85;4.53;;;;;;;10.57;50.74;102466.47;5049809;28;20165;-38
2023/05/04 02:11:27;;;;;;;12.45;3.85;;;;;;;10.59;50.55;102470.78;5053717;28;20021;-37
2023/05/04 02:13:53;;;;;;;13.27;3.47;;;;;;;10.58;50.92;102473.47;5029606;28;20063;-38
2023/05/04 02:16:18;;;;;;;10.88;3.55;;;;;;;10.52;50.79;102479.75;5029146;28;20136;-37
2023/05/04 02:18:45;;;;;;;9.20;4.38;;;;;;;10.48;50.69;102473.72;5041828;28;20056;-37
2023/05/04 02:21:11;;;;;;;10.32;4.25;;;;;;;10.40;51.08;102469.59;5039277;28;20036;-37
2023/05/04 02:23:37;;;;;;;12.93;4.90;;;;;;;10.31;51.25;102466.28;5038111;28;20035;-37
2023/05/04 02:26:02;;;;;;;12.85;4.07;;;;;;;10.19;51.51;102462.25;5033482;28;20072;-36
2023/05/04 02:28:28;;;;;;;10.65;4.38;;;;;;;10.11;51.82;102466.00;5031110;28;20185;-37
2023/05/04 02:30:53;;;;;;;10.90;4.22;;;;;;;10.10;51.83;102464.25;5045223;28;20119;-37
2023/05/04 02:33:19;;;;;;;9.88;4.20;;;;;;;10.17;51.53;102471.09;5025922;28;20097;-36
2023/05/04 02:35:44;;;;;;;10.05;4.82;;;;;;;10.17;51.48;102463.19;5035937;28;20135;-37
2023/05/04 02:38:09;;;;;;;10.55;6.03;;;;;;;10.21;51.51;102464.81;5021057;28;20032;-37
2023/05/04 02:40:35;;;;;;;22.05;5.60;;;;;;;10.27;51.33;102459.38;5036952;28;20052;-37
2023/05/04 02:43:00;;;;;;;11.70;4.85;;;;;;;10.30;51.24;102467.19;5023986;28;20032;-37
2023/05/04 02:45:26;;;;;;;12.55;4.80;;;;;;;10.34;51.10;102468.84;5038859;28;20037;-36
2023/05/04 02:47:51;;;;;;;11.07;3.67;;;;;;;10.34;51.20;102465.34;5045019;28;20060;-37
2023/05/04 02:50:17;;;;;;;15.32;4.50;;;;;;;10.30;51.19;102461.94;5041356;28;20052;-37
2023/05/04 02:52:42;;;;;;;12.27;4.45;;;;;;;10.18;51.40;102462.31;5038134;28;20032;-37
2023/05/04 02:55:08;;;;;;;10.15;4.25;;;;;;;10.00;51.77;102456.66;5049631;28;20039;-37
2023/05/04 02:57:34;;;;;;;12.85;5.13;;;;;;;9.89;51.94;102454.31;5045014;28;20025;-37
2023/05/04 03:00:00;;;;;;;15.10;4.18;;;;;;;9.90;51.63;102460.44;5043294;28;20073;-37
2023/05/04 03:02:25;;;;;;;10.13;3.78;;;;;;;9.94;51.55;102446.28;5041792;28;20041;-36
2023/05/04 03:04:51;;;;;;;11.25;3.70;;;;;;;9.95;51.48;102442.75;5050609;28;20478;-36
2023/05/04 03:07:16;;;;;;;10.90;3.33;;;;;;;9.93;51.29;102444.56;5040844;28;20512;-36
2023/05/04 03:09:44;;;;;;;14.15;4.38;;;;;;;9.95;51.17;102440.13;5047837;28;20120;-36
2023/05/04 03:12:10;;;;;;;11.32;4.47;;;;;;;9.96;50.94;102439.22;5046349;28;20111;-37
2023/05/04 03:14:35;;;;;;;13.55;4.22;;;;;;;9.97;51.18;102448.84;5042120;28;20047;-37
2023/05/04 03:17:01;;;;;;;10.98;4.10;;;;;;;9.89;51.00;102448.19;5031875;28;20056;-37
2023/05/04 03:19:26;;;;;;;11.98;4.88;;;;;;;9.72;51.33;102451.25;5050812;28;20065;-36
2023/05/04 03:21:52;;;;;;;8.35;3.85;;;;;;;9.65;51.42;102450.56;5037690;28;20033;-37
2023/05/04 03:24:18;;;;;;;9.38;3.95;;;;;;;9.66;51.43;102447.03;5033519;28;20094;-37
2023/05/04 03:26:43;;;;;;;9.57;3.90;;;;;;;9.74;51.31;102457.34;5052226;28;20093;-36
2023/05/04 03:29:09;;;;;;;10.55;4.10;;;;;;;9.82;51.07;102451.88;5051576;28;20425;-36
2023/05/04 03:31:35;;;;;;;19.10;4.65;;;;;;;9.83;50.97;102453.63;5052120;28;20028;-37
2023/05/04 03:34:01;;;;;;;10.93;4.22;;;;;;;9.77;51.28;102455.50;5053619;28;20025;-35
2023/05/04 03:36:26;;;;;;;9.82;3.70;;;;;;;9.70;51.07;102453.06;5050721;28;20040;-37
2023/05/04 03:38:52;;;;;;;9.73;4.35;;;;;;;9.56;51.56;102453.44;5051103;28;20028;-36
2023/05/04 03:41:17;;;;;;;10.23;4.57;;;;;;;9.53;51.88;102450.91;5050441;28;20528;-36
2023/05/04 03:43:43;;;;;;;13.02;4.22;;;;;;;9.58;51.79;102456.91;5050893;28;20036;-37
2023/05/04 03:46:08;;;;;;;14.60;5.10;;;;;;;9.55;52.02;102456.97;5035683;28;20429;-37
2023/05/04 03:48:34;;;;;;;11.73;4.28;;;;;;;9.46;52.10;102451.03;5032743;28;20705;-36
2023/05/04 03:50:59;;;;;;;12.88;4.32;;;;;;;9.48;52.31;102447.50;5037216;28;20033;-36
2023/05/04 03:53:25;;;;;;;15.05;4.82;;;;;;;9.55;51.85;102454.34;5054320;28;20021;-36
2023/05/04 03:55:51;;;;;;;11.82;5.10;;;;;;;9.53;51.96;102456.16;5054952;28;20475;-37
2023/05/04 03:58:16;;;;;;;10.13;3.83;;;;;;;9.55;52.06;102460.47;5057657;28;20077;-37
2023/05/04 04:00:41;;;;;;;16.45;4.90;;;;;;;9.60;52.08;102457.72;5050823;28;20025;-36
2023/05/04 04:03:07;;;;;;;21.38;4.80;;;;;;;9.59;52.06;102456.84;5041084;28;20025;-36
2023/05/04 04:05:33;;;;;;;13.13;4.22;;;;;;;9.61;52.04;102448.91;5052002;28;20043;-36
2023/05/04 04:07:58;;;;;;;12.48;4.78;;;;;;;9.63;52.09;102452.38;5054147;28;20155;-37
2023/05/04 04:10:24;;;;;;;9.57;4.15;;;;;;;9.62;52.18;102455.91;5020129;28;20060;-36
2023/05/04 04:12:49;;;;;;;19.85;7.47;;;;;;;9.55;52.49;102449.94;5050684;28;20036;-36
2023/05/04 04:15:15;;;;;;;12.18;4.63;;;;;;;9.58;52.22;102454.28;5058310;28;20470;-36
2023/05/04 04:17:40;;;;;;;14.57;5.57;;;;;;;9.63;52.14;102457.63;5052431;28;20422;-36
2023/05/04 04:20:06;;;;;;;12.23;4.35;;;;;;;9.67;52.15;102459.28;5056321;28;20036;-37
2023/05/04 04:22:32;;;;;;;14.05;4.78;;;;;;;9.74;52.02;102455.59;5032581;28;20510;-37
2023/05/04 04:24:57;;;;;;;15.65;5.90;;;;;;;9.81;51.80;102455.41;5055160;28;20040;-36
2023/05/04 04:27:23;;;;;;;10.38;4.80;;;;;;;9.77;51.92;102457.28;5035757;28;20032;-37
2023/05/04 04:29:49;;;;;;;18.52;6.82;;;;;;;9.74;52.13;102450.34;5029942;28;20526;-37
2023/05/04 04:32:14;;;;;;;13.63;5.25;;;;;;;9.72;52.14;102449.53;5035014;28;20047;-37
2023/05/04 04:34:40;;;;;;;20.40;5.80;;;;;;;9.75;52.31;102451.19;5050488;28;20037;-37
2023/05/04 04:37:05;;;;;;;14.00;5.53;;;;;;;9.73;52.38;102453.00;5052769;28;20063;-36
2023/05/04 04:39:31;;;;;;;24.27;6.50;;;;;;;9.73;52.55;102455.63;5040214;28;20036;-38
2023/05/04 04:41:57;;;;;;;23.55;6.30;;;;;;;9.71;52.80;102453.03;5039400;28;20102;-38
2023/05/04 04:44:22;;;;;;;15.38;4.72;;;;;;;9.76;52.92;102447.66;5052927;28;20474;-38
2023/05/04 04:46:48;;;;;;;11.45;5.70;;;;;;;9.81;52.64;102455.41;5054464;28;20064;-38
2023/05/04 04:49:16;;;;;;;7.60;4.57;;;;;;;9.82;52.86;102457.16;5033092;28;20052;-38
2023/05/04 04:51:42;;;;;;;13.38;5.03;;;;;;;9.85;53.03;102451.81;5036485;28;20024;-38
2023/05/04 04:54:08;;;;;;;12.95;5.22;;;;;;;9.88;53.09;102451.72;5054704;28;20031;-39
2023/05/04 04:56:33;;;;;;;10.98;4.22;;;;;;;9.95;52.99;102447.16;5048059;28;20029;-38
2023/05/04 04:58:59;;;;;;;12.70;5.15;;;;;;;9.98;53.23;102447.94;5050531;28;20028;-38
2023/05/04 05:01:25;;;;;;;14.80;4.93;;;;;;;10.05;53.16;102443.34;5052402;28;20170;-38
2023/05/04 05:03:50;;;;;;;52.20;24.27;;;;;;;10.09;53.37;102449.38;5040954;28;20617;-38
2023/05/04 05:06:16;;;;;;;13.55;6.97;;;;;;;10.11;53.58;102450.22;5039985;28;20071;-38
2023/05/04 05:08:42;;;;;;;20.38;8.95;;;;;;;10.13;53.60;102445.78;5054884;28;20024;-38
2023/05/04 05:11:08;;;;;;;16.10;6.53;;;;;;;10.19;53.54;102450.88;5056122;28;20047;-38
2023/05/04 05:13:34;;;;;;;10.80;4.97;;;;;;;10.25;53.55;102455.09;5054930;28;20044;-39
2023/05/04 05:16:00;;;;;;;23.05;5.70;;;;;;;10.31;53.55;102457.53;5053992;28;20036;-39
2023/05/04 05:18:26;;;;;;;14.82;5.38;;;;;;;10.35;53.39;102449.53;5051536;28;20044;-39
2023/05/04 05:20:51;;;;;;;15.93;5.47;;;;;;;10.33;53.92;102453.09;5054590;28;20668;-39
2023/05/04 05:23:18;;;;;;;12.85;4.82;;;;;;;10.30;54.02;102454.03;5057800;28;20033;-39
2023/05/04 05:25:47;;;;;;;14.07;5.40;;;;;;;10.36;53.85;102451.22;5051101;28;20035;-45
2023/05/04 05:28:13;;;;;;;23.45;7.18;;;;;;;10.40;54.03;102449.41;5056841;28;20059;-39
2023/05/04 05:30:38;;;;;;;14.77;5.43;;;;;;;10.41;54.07;102450.25;5054034;28;20053;-39
2023/05/04 05:33:04;;;;;;;13.75;5.18;;;;;;;10.46;54.05;102448.38;5057635;28;20032;-39
2023/05/04 05:35:30;;;;;;;13.85;4.75;;;;;;;10.50;53.91;102439.47;5061027;28;20021;-39
2023/05/04 05:37:55;;;;;;;11.80;5.93;;;;;;;10.57;53.73;102442.78;5053260;28;20029;-39
2023/05/04 05:40:21;;;;;;;9.23;4.18;;;;;;;10.64;53.56;102447.81;5050679;28;20815;-39
2023/05/04 05:42:47;;;;;;;35.03;18.90;;;;;;;10.70;53.57;102440.63;5052399;28;20032;-39
2023/05/04 05:45:12;;;;;;;18.58;6.93;;;;;;;10.75;53.52;102443.97;5055858;28;20486;-38
2023/05/04 05:47:38;;;;;;;10.27;4.72;;;;;;;10.76;53.70;102438.66;5054288;28;20071;-39
2023/05/04 05:50:07;;;;;;;10.35;4.32;;;;;;;10.81;53.67;102439.38;5057838;28;20029;-39
2023/05/04 05:52:32;;;;;;;14.98;4.00;;;;;;;10.87;53.58;102434.84;5057955;28;20040;-39
2023/05/04 05:54:58;;;;;;;11.18;3.92;;;;;;;10.90;53.41;102442.63;5056640;28;20020;-39
2023/05/04 05:57:23;;;;;;;7.72;3.40;;;;;;;10.94;53.52;102439.84;5055527;28;20024;-39
2023/05/04 05:59:49;;;;;;;15.40;6.28;;;;;;;10.97;53.41;102445.00;5034740;28;20119;-39
2023/05/04 06:02:18;;;;;;;9.65;3.70;;;;;;;11.02;53.39;102444.00;5060010;28;20772;-39
2023/05/04 06:04:46;;;;;;;8.77;3.70;;;;;;;11.07;53.38;102436.81;5034130;28;20479;-38
2023/05/04 06:07:12;;;;;;;13.32;5.60;;;;;;;11.13;53.34;102447.13;5054123;28;20036;-39
2023/05/04 06:09:38;;;;;;;33.85;14.45;;;;;;;11.18;53.38;102447.84;5044673;28;20498;-38
2023/05/04 06:12:05;;;;;;;14.25;5.00;;;;;;;11.24;53.29;102452.94;5035774;28;20051;-39
2023/05/04 06:14:32;;;;;;;8.38;3.00;;;;;;;11.32;53.05;102446.53;5047537;28;20951;-36
2023/05/04 06:16:57;;;;;;;11.30;3.60;;;;;;;11.36;52.91;102451.66;5035939;28;20545;-39
2023/05/04 06:19:23;;;;;;;13.77;4.72;;;;;;;11.40;52.95;102447.16;5039413;28;20029;-39
2023/05/04 06:21:48;;;;;;;11.07;3.78;;;;;;;11.46;52.83;102454.84;5021266;28;20033;-39
2023/05/04 06:24:14;;;;;;;12.13;3.33;;;;;;;11.49;52.73;102452.09;5057243;28;20111;-39
2023/05/04 06:26:40;;;;;;;5.72;3.00;;;;;;;11.54;52.63;102452.81;5060677;28;20040;-39
2023/05/04 06:29:05;;;;;;;10.02;4.03;;;;;;;11.61;52.51;102447.31;5061325;28;20157;-39
2023/05/04 06:31:31;;;;;;;13.05;3.60;;;;;;;11.67;52.21;102450.59;5062024;28;20481;-39
2023/05/04 06:33:57;;;;;;;12.95;4.43;;;;;;;11.70;52.09;102447.84;5053450;28;20056;-39
2023/05/04 06:36:24;;;;;;;12.07;3.55;;;;;;;11.75;52.25;102452.97;5050330;28;20490;-39
2023/05/04 06:38:50;;;;;;;10.27;3.60;;;;;;;11.79;52.13;102449.31;5067482;28;20108;-38
2023/05/04 06:41:16;;;;;;;10.65;3.25;;;;;;;11.82;51.87;102449.19;5043338;28;20111;-37
2023/05/04 06:43:41;;;;;;;8.50;2.50;;;;;;;11.84;51.76;102442.09;5036915;28;20142;-38
2023/05/04 06:46:07;;;;;;;11.30;3.35;;;;;;;11.89;51.70;102450.69;5059468;28;20107;-37
2023/05/04 06:48:32;;;;;;;13.10;2.65;;;;;;;11.96;51.40;102446.03;5055621;28;20482;-38
2023/05/04 06:51:00;;;;;;;10.63;3.15;;;;;;;12.00;51.45;102446.84;5061061;28;20475;-38
2023/05/04 06:53:28;;;;;;;8.05;3.88;;;;;;;12.04;51.26;102443.16;5062964;28;20040;-37
2023/05/04 06:55:54;;;;;;;10.50;3.13;;;;;;;12.07;51.30;102436.94;5055123;28;20036;-37
2023/05/04 06:58:20;;;;;;;12.73;3.58;;;;;;;12.12;51.36;102433.19;5057020;28;20051;-37
2023/05/04 07:00:46;;;;;;;8.30;3.20;;;;;;;12.15;51.39;102437.50;5053209;28;20035;-37
2023/05/04 07:03:12;;;;;;;9.73;3.17;;;;;;;12.16;51.38;102434.81;5060072;28;20024;-37
2023/05/04 07:05:37;;;;;;;13.77;3.88;;;;;;;12.22;51.29;102425.81;5039695;28;20037;-38
2023/05/04 07:08:03;;;;;;;6.43;2.90;;;;;;;12.27;51.31;102433.53;5042915;28;20041;-38
2023/05/04 07:10:28;;;;;;;19.73;8.45;;;;;;;12.31;51.31;102433.34;5056813;28;20073;-37
2023/05/04 07:12:54;;;;;;;9.02;3.42;;;;;;;12.35;51.24;102431.47;5055148;28;20025;-37
2023/05/04 07:15:20;;;;;;;11.85;3.03;;;;;;;12.39;51.23;102429.59;5046543;28;20059;-37
2023/05/04 07:17:48;;;;;;;10.98;2.60;;;;;;;12.44;50.77;102430.25;5057347;28;20060;-37
2023/05/04 07:20:16;;;;;;;8.95;3.25;;;;;;;12.48;50.60;102430.06;5063700;28;20025;-37
2023/05/04 07:22:41;;;;;;;13.70;3.40;;;;;;;12.53;50.54;102429.03;5059360;28;20036;-37
2023/05/04 07:25:07;;;;;;;7.75;2.70;;;;;;;12.57;50.40;102425.34;5051913;28;20025;-38
2023/05/04 07:27:36;;;;;;;11.30;2.47;;;;;;;12.63;50.21;102427.75;5057915;28;20087;-37
2023/05/04 07:30:05;;;;;;;9.38;2.85;;;;;;;12.71;49.73;102424.78;5055645;28;20028;-37
2023/05/04 07:32:30;;;;;;;7.68;2.47;;;;;;;12.75;49.79;102424.63;5063609;28;20031;-37
2023/05/04 07:34:56;;;;;;;8.27;2.40;;;;;;;12.81;49.57;102419.09;5037519;28;20024;-37
2023/05/04 07:37:21;;;;;;;7.10;2.67;;;;;;;12.87;49.58;102425.06;5052257;28;20028;-37
2023/05/04 07:39:47;;;;;;;9.95;2.28;;;;;;;12.91;49.52;102416.94;5056415;28;20058;-37
2023/05/04 07:42:12;;;;;;;5.65;2.70;;;;;;;12.94;49.48;102416.81;5053126;28;20044;-38
2023/05/04 07:44:40;;;;;;;5.43;1.88;;;;;;;12.98;49.42;102408.78;5041542;28;20107;-37
2023/05/04 07:47:05;;;;;;;8.52;2.33;;;;;;;13.00;49.46;102405.13;5052556;28;20035;-38
2023/05/04 07:49:31;;;;;;;12.88;3.50;;;;;;;13.02;49.54;102408.56;5040062;28;20020;-37
2023/05/04 07:51:57;;;;;;;11.25;2.85;;;;;;;13.05;49.50;102404.94;5031867;28;20040;-38
2023/05/04 07:54:23;;;;;;;12.38;2.97;;;;;;;13.10;49.46;102397.69;5042181;28;20051;-37
2023/05/04 07:56:48;;;;;;;6.70;2.47;;;;;;;13.16;49.39;102401.84;5036489;28;20029;-37
2023/05/04 07:59:17;;;;;;;4.53;2.33;;;;;;;13.21;49.11;102402.53;5055334;28;20349;-37
2023/05/04 08:01:43;;;;;;;6.30;2.13;;;;;;;13.26;49.08;102389.94;5044745;28;20020;-37
2023/05/04 08:04:09;;;;;;;12.07;2.58;;;;;;;13.32;48.89;102407.31;5056674;28;20044;-37
2023/05/04 08:06:38;;;;;;;23.25;10.07;;;;;;;13.37;48.85;102398.31;5040811;28;20051;-37
2023/05/04 08:09:04;;;;;;;16.02;6.03;;;;;;;13.41;48.92;102394.59;5057145;28;20028;-37
2023/05/04 08:11:32;;;;;;;9.43;3.03;;;;;;;13.45;48.70;102397.13;5058790;28;20032;-38
2023/05/04 08:13:57;;;;;;;8.00;3.15;;;;;;;13.47;48.85;102396.13;5055611;28;20024;-37
2023/05/04 08:16:23;;;;;;;17.17;4.38;;;;;;;13.49;48.58;102393.44;5059438;28;20032;-37
2023/05/04 08:18:50;;;;;;;12.82;3.40;;;;;;;13.52;48.51;102388.84;5053441;28;20086;-37
2023/05/04 08:21:19;;;;;;;5.43;1.92;;;;;;;13.53;48.34;102392.38;5055652;28;20043;-38
2023/05/04 08:23:45;;;;;;;9.95;2.60;;;;;;;13.60;47.96;102388.53;5057867;28;20025;-37
2023/05/04 08:26:10;;;;;;;5.13;2.05;;;;;;;13.64;47.80;102387.47;5055767;28;20106;-37
2023/05/04 08:28:37;;;;;;;7.60;4.00;;;;;;;13.69;47.87;102390.75;5063232;28;20059;-38
2023/05/04 08:31:03;;;;;;;5.80;1.90;;;;;;;13.72;47.71;102390.59;5053729;28;20482;-37
2023/05/04 08:33:29;;;;;;;7.82;1.80;;;;;;;13.75;47.32;102394.94;5060146;28;20032;-37
2023/05/04 08:35:54;;;;;;;4.28;1.60;;;;;;;13.78;47.20;102388.63;5039117;28;20098;-37
2023/05/04 08:38:20;;;;;;;9.63;2.60;;;;;;;13.81;47.16;102385.84;5053360;28;20987;-37
2023/05/04 08:40:46;;;;;;;11.25;2.20;;;;;;;13.84;46.93;102381.28;5041427;28;20043;-37
2023/05/04 08:43:11;;;;;;;3.58;1.85;;;;;;;13.88;46.82;102389.91;5056747;28;20056;-37
2023/05/04 08:45:38;;;;;;;11.15;2.38;;;;;;;13.93;46.66;102392.34;5033537;28;20024;-37
2023/05/04 08:48:06;;;;;;;10.82;4.07;;;;;;;13.97;46.24;102394.81;5048368;28;20029;-37
2023/05/04 08:50:33;;;;;;;4.63;2.17;;;;;;;14.02;45.93;102382.22;5053758;28;20028;-37
2023/05/04 08:53:02;;;;;;;6.25;2.63;;;;;;;14.07;45.59;102379.34;5056538;28;20156;-37
2023/05/04 08:55:30;;;;;;;8.65;3.90;;;;;;;14.12;45.32;102379.16;5052538;28;20029;-37
2023/05/04 08:57:58;;;;;;;9.45;1.90;;;;;;;14.13;45.24;102375.56;5053577;28;20131;-38
2023/05/04 09:00:25;;;;;;;8.75;2.08;;;;;;;14.15;45.15;102377.22;5037409;28;20060;-37
2023/05/04 09:02:51;;;;;;;6.82;2.00;;;;;;;14.20;44.95;102377.00;5053355;28;20489;-37
2023/05/04 09:05:20;;;;;;;6.43;1.90;;;;;;;14.21;44.87;102372.56;5057266;28;20021;-38
2023/05/04 09:07:47;;;;;;;6.05;2.42;;;;;;;14.26;44.73;102368.78;5054334;28;20043;-38
2023/05/04 09:10:15;;;;;;;7.07;2.45;;;;;;;14.31;44.66;102381.78;5054279;28;20036;-38
2023/05/04 09:12:41;;;;;;;7.93;2.47;;;;;;;14.36;44.15;102389.50;5058665;28;20051;-38
2023/05/04 09:15:17;;;;;;;9.55;2.63;;;;;;;14.42;43.36;102384.78;5053404;28;20387;-38
2023/05/04 09:18:01;;;;;;;6.65;2.63;;;;;;;14.45;43.11;102389.06;5054836;28;20025;-39
2023/05/04 09:20:28;;;;;;;10.48;2.15;;;;;;;14.47;44.01;102387.19;5059428;28;20033;-38
2023/05/04 09:23:06;;;;;;;8.43;2.17;;;;;;;14.48;43.38;102386.25;5052596;28;20028;-38
2023/05/04 09:25:33;;;;;;;5.25;2.22;;;;;;;14.53;43.69;102378.09;5059592;28;20028;-37
2023/05/04 09:27:59;;;;;;;17.95;7.15;;;;;;;14.59;43.86;102376.03;5051365;28;20066;-38
2023/05/04 09:30:25;;;;;;;11.65;6.05;;;;;;;14.62;43.69;102359.97;5036521;28;20119;-39
2023/05/04 09:32:51;;;;;;;21.40;7.18;;;;;;;14.61;43.68;102358.25;5055151;28;20105;-37
2023/05/04 09:35:27;;;;;;;7.35;2.33;;;;;;;14.66;43.16;102349.22;5055080;28;20025;-37
2023/05/04 09:37:53;;;;;;;6.10;2.35;;;;;;;14.68;43.53;102352.69;5049902;28;20021;-37
2023/05/04 09:40:31;;;;;;;5.45;1.88;;;;;;;14.68;43.11;102345.56;5040166;28;20474;-38
2023/05/04 09:42:57;;;;;;;9.90;3.33;;;;;;;14.72;43.31;102344.50;5056165;28;20073;-38
2023/05/04 09:45:22;;;;;;;7.53;2.60;;;;;;;14.74;43.35;102337.34;5057493;28;20024;-38
2023/05/04 09:47:51;;;;;;;8.05;3.63;;;;;;;14.79;43.09;102326.50;5056711;28;20197;-38
2023/05/04 09:50:22;;;;;;;5.43;1.88;;;;;;;14.87;43.22;102323.47;5056811;28;20028;-38
2023/05/04 09:52:56;;;;;;;9.15;3.72;;;;;;;14.99;42.95;102320.19;5056174;28;20024;-38
2023/05/04 09:55:24;;;;;;;9.23;3.55;;;;;;;15.04;42.95;102330.56;5040853;28;20071;-39
2023/05/04 09:57:49;;;;;;;7.53;2.10;;;;;;;15.06;43.03;102329.53;5057394;28;20036;-38
2023/05/04 10:00:16;;;;;;;5.30;2.00;;;;;;;15.15;42.79;102330.88;5037218;28;20070;-38
2023/05/04 10:02:43;;;;;;;4.97;1.42;;;;;;;15.18;42.82;102330.72;5054345;28;20029;-38
2023/05/04 10:05:12;;;;;;;4.82;1.77;;;;;;;15.23;42.72;102330.47;5056931;28;20042;-38
2023/05/04 10:07:39;;;;;;;5.60;1.58;;;;;;;15.24;42.54;102326.88;5048994;28;20067;-39
2023/05/04 10:10:09;;;;;;;5.32;2.25;;;;;;;15.27;42.56;102309.94;5056195;28;20028;-38
2023/05/04 10:12:35;;;;;;;7.50;2.30;;;;;;;15.31;42.45;102308.84;5036263;28;20040;-38
2023/05/04 10:15:03;;;;;;;8.45;2.55;;;;;;;15.35;42.31;102300.66;5042975;28;20037;-38
2023/05/04 10:17:40;;;;;;;5.53;1.92;;;;;;;15.39;41.63;102302.19;5048260;28;20086;-38
2023/05/04 10:20:15;;;;;;;14.82;6.50;;;;;;;15.45;42.07;102297.50;5058042;28;20043;-38
2023/05/04 10:23:02;;;;;;;10.48;3.05;;;;;;;15.55;41.56;102314.66;5044767;28;20063;-38
2023/05/04 10:25:59;;;;;;;35.33;9.82;;;;;;;15.62;41.29;102313.34;5034182;28;20016;-38
2023/05/04 10:28:47;;;;;;;15.20;5.53;;;;;;;15.66;41.87;102319.34;5029451;28;20119;-38
2023/05/04 10:31:16;;;;;;;5.50;2.00;;;;;;;15.73;41.74;102309.28;5051971;28;20576;-38
2023/05/04 10:33:43;;;;;;;6.25;2.42;;;;;;;15.75;41.19;102296.75;5027287;28;20105;-38
2023/05/04 10:36:11;;;;;;;10.77;2.80;;;;;;;15.83;41.07;102295.41;5023003;28;20032;-38
2023/05/04 10:38:41;;;;;;;7.15;3.15;;;;;;;15.90;40.87;102292.44;5026540;28;20029;-37
2023/05/04 10:41:14;;;;;;;7.35;2.22;;;;;;;15.92;40.42;102293.22;5051381;28;20144;-38
2023/05/04 10:43:41;;;;;;;7.07;2.28;;;;;;;15.92;40.73;102278.13;5041309;28;20040;-37
2023/05/04 10:46:20;;;;;;;8.10;2.20;;;;;;;15.95;40.15;102274.47;5054098;28;20044;-38
2023/05/04 10:48:47;;;;;;;9.27;2.25;;;;;;;16.02;40.57;102265.22;5051351;28;20028;-38
2023/05/04 10:51:27;;;;;;;4.32;2.00;;;;;;;16.08;39.21;102256.91;5034938;28;20034;-38
2023/05/04 10:53:53;;;;;;;7.60;1.98;;;;;;;16.10;40.15;102255.03;5045357;28;20043;-38
2023/05/04 10:56:22;;;;;;;6.32;2.50;;;;;;;16.17;39.93;102247.56;5044016;28;20036;-38
2023/05/04 10:58:49;;;;;;;13.85;5.05;;;;;;;16.24;40.28;102245.41;5042352;28;20912;-38
2023/05/04 11:01:15;;;;;;;15.65;4.28;;;;;;;16.31;40.16;102244.09;5044888;28;20036;-38
2023/05/04 11:03:41;;;;;;;6.80;2.47;;;;;;;16.38;40.17;102245.44;5054672;28;20107;-38
2023/05/04 11:06:17;;;;;;;8.68;4.35;;;;;;;16.50;39.49;102246.50;5035059;28;20041;-38
2023/05/04 11:08:44;;;;;;;9.70;2.92;;;;;;;16.56;39.86;102243.50;5043997;28;20033;-38
2023/05/04 11:11:10;;;;;;;5.80;3.00;;;;;;;16.69;39.53;102248.94;5051527;28;20499;-38
2023/05/04 11:13:46;;;;;;;7.65;3.38;;;;;;;16.80;39.11;102242.97;5039763;28;20089;-38
2023/05/04 11:16:32;;;;;;;17.33;2.50;;;;;;;16.91;37.46;102235.22;5047110;28;20173;-38
2023/05/04 11:19:11;;;;;;;7.20;2.08;;;;;;;16.96;38.41;102237.63;5035711;28;20071;-38
2023/05/04 11:21:42;;;;;;;4.85;1.85;;;;;;;17.00;38.68;102233.84;5053206;28;20371;-38